Time;durP1;ratioP1;P1;durP2;ratioP2;P2;SDS_P1;SDS_P2;PMS_P1;PMS_P2;Temp;Humidity;BMP_temperature;BMP_pressure;BME280_temperature;BME280_humidity;BME280_pressure;Samples;Min_cycle;Max_cycle;Signal;HPM_P1;HPM_P2
2021/11/02 00:01:30;;;;;;;18.67;11.20;;;;;;;-1.12;81.04;94966.17;1777366;80;20983;-69
2021/11/02 00:03:57;;;;;;;24.10;11.37;;;;;;;-1.15;81.17;94968.28;1773046;80;20991;-68
2021/11/02 00:06:25;;;;;;;22.57;11.73;;;;;;;-1.14;81.13;94966.12;1765546;80;21032;-68
2021/11/02 00:08:51;;;;;;;22.03;12.17;;;;;;;-1.01;81.44;94966.33;1765188;80;21012;-68
2021/11/02 00:11:18;;;;;;;22.13;12.53;;;;;;;-1.02;80.77;94962.87;1766496;80;21067;-68
2021/11/02 00:13:51;;;;;;;21.63;10.77;;;;;;;-1.12;80.18;94957.11;1765568;80;21514;-68
2021/11/02 00:16:22;;;;;;;25.27;11.60;;;;;;;-1.12;80.33;94959.70;1770540;80;21031;-68
2021/11/02 00:19:06;;;;;;;18.70;10.77;;;;;;;-1.09;80.59;94951.97;1778698;81;21077;-68
2021/11/02 00:21:44;;;;;;;15.50;9.47;;;;;;;-1.06;80.49;94948.55;1770282;80;21085;-67
2021/11/02 00:24:28;;;;;;;17.77;10.13;;;;;;;-1.05;80.73;94946.00;1763914;80;21565;-68
2021/11/02 00:26:43;;;;;;;18.63;10.30;;;;;;;-1.16;80.43;94951.42;1766508;80;21025;-68
2021/11/02 00:29:10;;;;;;;18.43;10.53;;;;;;;-1.26;80.12;94946.94;1765232;80;21480;-68
2021/11/02 00:31:38;;;;;;;18.00;10.00;;;;;;;-1.15;80.54;94938.95;1778182;80;21050;-67
2021/11/02 00:34:04;;;;;;;17.47;9.77;;;;;;;-1.11;80.92;94927.37;1775806;80;20970;-67
2021/11/02 00:36:32;;;;;;;22.70;11.07;;;;;;;-1.22;80.61;94930.20;1771712;81;21029;-68
2021/11/02 00:38:59;;;;;;;20.13;10.60;;;;;;;-1.21;80.91;94931.06;1765677;80;21029;-68
2021/11/02 00:41:26;;;;;;;18.23;10.93;;;;;;;-1.24;80.17;94919.38;1771303;80;21042;-68
2021/11/02 00:43:54;;;;;;;18.60;9.63;;;;;;;-1.29;80.38;94913.26;1773287;80;21566;-67
2021/11/02 00:46:30;;;;;;;16.40;8.90;;;;;;;-1.30;80.51;94924.04;1769290;80;21583;-67
2021/11/02 00:48:50;;;;;;;15.17;8.10;;;;;;;-1.28;80.48;94915.02;1772137;80;21062;-67
2021/11/02 00:51:18;;;;;;;15.67;9.33;;;;;;;-1.29;80.76;94919.30;1771710;81;21111;-67
2021/11/02 00:53:45;;;;;;;17.60;9.20;;;;;;;-1.28;80.28;94914.59;1771723;80;20985;-68
2021/11/02 00:56:12;;;;;;;17.20;9.40;;;;;;;-1.35;80.63;94908.44;1764072;80;21112;-67
2021/11/02 00:58:39;;;;;;;16.83;9.10;;;;;;;-1.35;80.34;94911.02;1769210;81;21034;-67
2021/11/02 01:01:06;;;;;;;20.17;12.13;;;;;;;-1.28;80.59;94903.38;1770570;81;21035;-67
2021/11/02 01:03:34;;;;;;;14.80;7.77;;;;;;;-1.22;80.47;94896.55;1775534;80;21105;-67
2021/11/02 01:06:02;;;;;;;18.47;9.47;;;;;;;-1.31;79.49;94890.83;1774852;80;21023;-67
2021/11/02 01:08:28;;;;;;;23.73;9.27;;;;;;;-1.29;79.99;94887.37;1766478;81;21016;-67
2021/11/02 01:10:56;;;;;;;17.00;7.80;;;;;;;-1.29;79.88;94894.71;1773571;81;21017;-67
2021/11/02 01:13:23;;;;;;;13.73;7.83;;;;;;;-1.27;80.12;94887.84;1766407;81;21026;-67
2021/11/02 01:15:50;;;;;;;15.83;8.50;;;;;;;-1.38;79.60;94888.98;1775104;80;21125;-67
2021/11/02 01:18:18;;;;;;;16.87;8.60;;;;;;;-1.46;80.08;94890.59;1770615;80;21047;-67
2021/11/02 01:20:45;;;;;;;17.00;9.57;;;;;;;-1.47;80.15;94887.97;1767987;80;21113;-67
2021/11/02 01:23:14;;;;;;;19.73;10.40;;;;;;;-1.50;80.45;94892.67;1765205;80;21021;-67
2021/11/02 01:25:41;;;;;;;17.77;10.27;;;;;;;-1.53;80.45;94883.14;1764112;80;21024;-68
2021/11/02 01:28:08;;;;;;;15.13;8.70;;;;;;;-1.59;79.54;94883.45;1775364;80;21023;-68
2021/11/02 01:30:40;;;;;;;21.57;10.57;;;;;;;-1.52;80.05;94877.11;1777743;79;21520;-68
2021/11/02 01:33:08;;;;;;;15.10;8.70;;;;;;;-1.39;80.46;94866.95;1771584;80;21465;-67
2021/11/02 01:35:37;;;;;;;14.70;7.97;;;;;;;-1.42;79.66;94865.19;1773365;80;21499;-67
2021/11/02 01:38:05;;;;;;;13.33;7.73;;;;;;;-1.54;79.39;94867.58;1766635;80;21043;-68
2021/11/02 01:40:33;;;;;;;17.73;7.77;;;;;;;-1.60;79.51;94869.66;1772472;81;21066;-67
2021/11/02 01:43:00;;;;;;;13.30;7.23;;;;;;;-1.55;79.91;94863.27;1772689;80;20987;-68
2021/11/02 01:45:28;;;;;;;16.30;8.73;;;;;;;-1.54;79.76;94859.82;1768317;80;21116;-68
2021/11/02 01:47:56;;;;;;;16.13;8.50;;;;;;;-1.55;80.02;94856.80;1764461;80;21056;-68
2021/11/02 01:50:25;;;;;;;19.67;10.63;;;;;;;-1.50;80.19;94854.29;1771228;80;20999;-68
2021/11/02 01:52:53;;;;;;;19.43;10.03;;;;;;;-1.47;79.98;94848.73;1770121;80;21007;-67
2021/11/02 01:55:20;;;;;;;14.90;7.80;;;;;;;-1.52;79.08;94852.96;1776816;81;21051;-68
2021/11/02 01:57:47;;;;;;;15.77;8.67;;;;;;;-1.56;79.40;94855.94;1776790;81;21026;-68
2021/11/02 02:00:17;;;;;;;14.70;8.97;;;;;;;-1.53;79.47;94851.23;1767648;80;21037;-67
2021/11/02 02:03:02;;;;;;;13.97;8.00;;;;;;;-1.49;79.89;94841.36;1763267;80;21543;-68
2021/11/02 02:05:53;;;;;;;16.30;7.42;;;;;;;-1.49;79.54;94834.89;1769551;80;21492;-67
2021/11/02 02:08:44;;;;;;;15.13;8.23;;;;;;;-1.42;79.82;94830.26;1772959;80;20978;-68
2021/11/02 02:11:41;;;;;;;11.40;7.00;;;;;;;-1.40;79.44;94824.69;1755721;80;21025;-68
2021/11/02 02:14:18;;;;;;;11.97;6.43;;;;;;;-1.44;78.92;94819.44;1764936;80;21613;-67
2021/11/02 02:16:50;;;;;;;14.90;8.53;;;;;;;-1.54;78.78;94816.73;1764692;80;21101;-67
2021/11/02 02:19:48;;;;;;;7.53;4.17;;;;;;;-1.57;78.63;94809.34;1772471;80;21583;-67
2021/11/02 02:22:50;;;;;;;11.80;6.93;;;;;;;-1.66;78.84;94816.55;1763834;80;21607;-68
2021/11/02 02:25:53;;;;;;;16.37;7.17;;;;;;;-1.82;78.81;94816.70;1769743;80;21009;-67
2021/11/02 02:28:32;;;;;;;13.17;6.83;;;;;;;-1.83;79.53;94814.98;1770571;81;21081;-68
2021/11/02 02:31:05;;;;;;;12.83;6.03;;;;;;;-1.78;79.96;94809.45;1777350;81;21027;-68
2021/11/02 02:33:42;;;;;;;13.05;6.70;;;;;;;-1.86;79.06;94811.06;1776560;81;21607;-67
2021/11/02 02:36:11;;;;;;;14.13;7.80;;;;;;;-1.92;79.75;94808.35;1765900;80;21571;-68
2021/11/02 02:38:42;;;;;;;15.30;7.57;;;;;;;-1.89;80.07;94812.70;1771400;81;21078;-67
2021/11/02 02:41:10;;;;;;;12.33;6.60;;;;;;;-1.79;80.30;94817.18;1768545;80;21008;-67
2021/11/02 02:43:44;;;;;;;12.63;6.10;;;;;;;-1.80;79.77;94809.84;1758942;80;21042;-68
2021/11/02 02:46:13;;;;;;;12.47;6.63;;;;;;;-1.81;79.70;94806.83;1775580;81;21070;-67
2021/11/02 02:48:42;;;;;;;14.67;7.90;;;;;;;-1.92;79.73;94791.55;1765720;80;21010;-67
2021/11/02 02:51:11;;;;;;;14.40;6.90;;;;;;;-2.09;79.41;94795.17;1764760;80;21116;-67
2021/11/02 02:53:45;;;;;;;12.67;6.50;;;;;;;-2.04;79.93;94797.41;1774223;80;20988;-67
2021/11/02 02:56:13;;;;;;;10.50;6.28;;;;;;;-1.96;80.28;94790.64;1769289;80;21312;-67
2021/11/02 02:58:44;;;;;;;12.73;6.07;;;;;;;-1.84;80.22;94791.27;1771650;80;21053;-67
2021/11/02 03:01:15;;;;;;;12.07;6.43;;;;;;;-1.83;79.62;94792.14;1764480;80;21020;-67
2021/11/02 03:03:52;;;;;;;14.87;5.97;;;;;;;-1.89;79.53;94788.14;1774085;80;21109;-67
2021/11/02 03:06:28;;;;;;;9.53;5.70;;;;;;;-1.88;79.53;94784.73;1777004;81;21043;-67
2021/11/02 03:08:59;;;;;;;9.73;6.10;;;;;;;-1.83;79.89;94781.36;1762438;80;21551;-67
2021/11/02 03:11:29;;;;;;;8.27;4.57;;;;;;;-1.96;79.59;94776.86;1759232;80;21023;-67
2021/11/02 03:13:58;;;;;;;6.53;3.93;;;;;;;-1.95;79.44;94774.70;1770215;80;21062;-67
2021/11/02 03:16:56;;;;;;;6.60;4.33;;;;;;;-2.10;79.27;94764.13;1765285;80;21097;-68
2021/11/02 03:49:42;;;;;;;7.60;4.67;;;;;;;-2.24;80.04;94764.77;1776420;81;21584;-68
2021/11/02 03:54:33;;;;;;;9.33;4.73;;;;;;;-2.22;80.18;94766.06;1775514;81;21050;-65
2021/11/02 03:54:49;;;;;;;8.23;4.55;;;;;;;-2.14;80.29;94768.78;1774019;81;20984;-68
2021/11/02 03:57:40;;;;;;;8.97;4.60;;;;;;;-2.17;79.77;94776.06;1754962;81;21042;-68
2021/11/02 05:50:56;;;;;;;12.03;6.93;;;;;;;-1.74;79.60;94692.70;1774637;81;21031;-69
2021/11/02 05:56:12;;;;;;;14.40;7.27;;;;;;;-1.54;80.10;94670.98;1767073;80;20966;-69
2021/11/02 05:58:37;;;;;;;13.97;6.57;;;;;;;-1.49;79.58;94668.45;1764304;80;21647;-69
2021/11/02 06:01:08;;;;;;;12.43;6.73;;;;;;;-1.41;80.05;94664.23;1766359;80;21000;-69
2021/11/02 06:06:17;;;;;;;14.23;6.60;;;;;;;-1.30;80.13;94649.72;1771891;80;20986;-69
2021/11/02 06:09:06;;;;;;;16.20;7.97;;;;;;;-1.31;80.45;94651.88;1767887;80;21023;-68
2021/11/02 06:28:54;;;;;;;42.00;14.37;;;;;;;-0.57;79.69;94643.11;1774608;81;21509;-69
2021/11/02 06:31:42;;;;;;;30.50;12.43;;;;;;;-0.47;79.10;94647.95;1775950;80;21561;-69
2021/11/02 06:34:17;;;;;;;26.23;13.57;;;;;;;-0.47;78.85;94650.11;1773203;81;20992;-68
2021/11/02 06:39:47;;;;;;;30.80;14.13;;;;;;;-0.24;79.80;94649.42;1753932;81;21165;-69
2021/11/02 06:48:05;;;;;;;25.40;13.37;;;;;;;0.04;79.19;94659.98;1769269;81;21573;-69
2021/11/02 06:50:47;;;;;;;19.73;10.40;;;;;;;0.16;79.05;94658.34;1765545;80;21019;-68
2021/11/02 06:53:15;;;;;;;19.80;11.57;;;;;;;0.15;78.76;94654.42;1768118;81;21023;-69
2021/11/02 07:20:36;;;;;;;17.40;10.40;;;;;;;1.10;77.26;94627.56;1765291;80;21036;-69
2021/11/02 07:25:34;;;;;;;18.03;10.93;;;;;;;1.42;77.43;94615.92;1770775;80;21022;-66
2021/11/02 08:47:16;;;;;;;21.60;12.50;;;;;;;6.04;68.59;94490.45;1769977;80;21065;-67
2021/11/02 08:49:45;;;;;;;23.10;14.53;;;;;;;6.20;69.11;94494.98;1766722;80;20991;-67
2021/11/02 08:52:14;;;;;;;19.40;10.70;;;;;;;6.30;68.00;94489.12;1765511;80;21156;-67
2021/11/02 08:54:44;;;;;;;16.43;10.40;;;;;;;6.48;68.36;94483.95;1772447;80;21081;-67
2021/11/02 08:57:11;;;;;;;20.00;11.03;;;;;;;6.56;67.60;94474.61;1767123;80;21092;-67
2021/11/02 08:59:38;;;;;;;20.53;12.83;;;;;;;6.63;67.91;94467.05;1764224;80;21029;-67
2021/11/02 09:02:12;;;;;;;18.53;11.63;;;;;;;6.71;67.61;94468.59;1774121;81;21015;-68
2021/11/02 09:04:47;;;;;;;22.67;12.00;;;;;;;6.74;67.34;94474.21;1764126;80;21025;-66
2021/11/02 09:07:22;;;;;;;19.20;12.40;;;;;;;6.73;67.14;94475.12;1771203;80;21550;-66
2021/11/02 09:09:50;;;;;;;20.57;13.10;;;;;;;6.71;67.25;94470.35;1769365;80;21041;-67
2021/11/02 09:12:19;;;;;;;22.53;12.93;;;;;;;6.63;66.60;94469.66;1764171;80;21543;-67
2021/11/02 09:14:48;;;;;;;19.67;11.73;;;;;;;6.49;66.82;94464.70;1768166;80;21059;-66
2021/11/02 09:17:15;;;;;;;21.73;13.50;;;;;;;6.45;66.99;94463.91;1771856;80;21585;-66
2021/11/02 09:19:42;;;;;;;19.40;11.97;;;;;;;6.40;67.10;94463.56;1744229;81;20983;-67
2021/11/02 09:22:12;;;;;;;52.37;25.40;;;;;;;6.40;67.33;94460.52;1772407;80;21046;-66
2021/11/02 09:24:44;;;;;;;24.33;14.53;;;;;;;6.36;67.30;94454.92;1768210;80;21504;-67
2021/11/02 09:27:14;;;;;;;24.37;13.63;;;;;;;6.30;67.01;94458.99;1766769;80;21054;-67
2021/11/02 09:29:42;;;;;;;60.33;29.00;;;;;;;6.27;67.20;94450.75;1766408;80;21042;-68
2021/11/02 09:32:09;;;;;;;45.33;24.60;;;;;;;6.24;67.20;94451.23;1766412;80;21018;-68
2021/11/02 09:34:36;;;;;;;22.07;12.53;;;;;;;6.18;67.26;94448.30;1769001;80;21015;-68
2021/11/02 09:37:20;;;;;;;20.57;12.70;;;;;;;6.15;67.31;94450.10;1770805;80;20994;-67
2021/11/02 09:39:50;;;;;;;36.10;19.60;;;;;;;6.09;67.38;94456.78;1775616;81;21043;-67
2021/11/02 09:43:02;;;;;;;22.87;13.30;;;;;;;6.04;67.28;94461.66;1764958;80;21049;-67
2021/11/02 09:45:51;;;;;;;48.83;23.73;;;;;;;5.97;66.83;94452.22;1763382;80;21591;-67
2021/11/02 09:48:53;;;;;;;36.57;19.77;;;;;;;5.90;67.41;94453.64;1776527;80;21086;-66
2021/11/02 09:52:15;;;;;;;50.27;23.30;;;;;;;5.87;67.16;94449.30;1767965;81;21009;-65
2021/11/02 09:55:05;;;;;;;68.97;29.77;;;;;;;5.87;67.21;94454.53;1773462;81;21070;-66
2021/11/02 09:58:13;;;;;;;72.87;31.47;;;;;;;5.84;67.71;94458.06;1775407;81;21006;-67
2021/11/02 10:00:58;;;;;;;56.63;28.20;;;;;;;5.81;67.43;94463.81;1773624;80;21018;-66
2021/11/02 10:03:47;;;;;;;65.53;31.07;;;;;;;5.81;67.88;94459.89;1776681;80;21513;-66
2021/11/02 10:06:39;;;;;;;55.70;28.73;;;;;;;5.78;68.02;94458.19;1767979;80;21066;-66
2021/11/02 10:09:33;;;;;;;85.00;37.80;;;;;;;5.77;68.48;94463.02;1765563;80;21081;-67
2021/11/02 10:12:16;;;;;;;108.40;45.87;;;;;;;5.72;67.96;94462.66;1767818;80;21030;-66
2021/11/02 10:15:01;;;;;;;;;;;;;;;5.69;68.35;94470.13;1769487;80;21042;-67
2021/11/02 10:18:06;;;;;;;124.63;44.37;;;;;;;5.63;68.29;94468.48;1774749;80;20378;-67
2021/11/02 10:21:13;;;;;;;165.90;60.80;;;;;;;5.59;69.46;94473.38;1773538;80;21087;-66
2021/11/02 10:24:31;;;;;;;117.17;49.73;;;;;;;5.59;69.58;94469.88;1768483;80;20999;-67
2021/11/02 10:27:12;;;;;;;40.30;21.30;;;;;;;5.57;70.31;94470.38;1765930;81;21035;-66
2021/11/02 10:30:11;;;;;;;44.93;23.20;;;;;;;5.54;70.41;94479.10;1774191;81;20987;-67
2021/11/02 10:32:41;;;;;;;51.80;25.27;;;;;;;5.51;72.08;94464.77;1766043;80;21131;-66
2021/11/02 10:47:22;;;;;;;79.50;36.00;;;;;;;6.36;73.70;94448.38;1860303;77;22208;-66
2021/11/02 10:50:11;;;;;;;84.57;40.53;;;;;;;6.19;74.25;94455.70;1832468;78;21627;-68
2021/11/02 10:52:40;;;;;;;90.77;38.57;;;;;;;6.10;74.67;94455.45;1832178;78;21034;-68
2021/11/02 10:55:22;;;;;;;82.53;35.73;;;;;;;6.05;75.50;94455.54;1832071;78;21018;-68
2021/11/02 10:58:32;;;;;;;65.10;30.63;;;;;;;6.00;77.05;94448.22;1832806;78;21083;-68
2021/11/02 11:01:07;;;;;;;69.60;29.90;;;;;;;5.97;76.87;94437.81;1831963;78;21576;-68
2021/11/02 11:03:35;;;;;;;70.10;31.10;;;;;;;5.90;77.74;94440.55;1832055;78;21007;-68
2021/11/02 11:06:09;;;;;;;109.07;45.47;;;;;;;5.85;76.92;94438.02;1831930;78;21565;-68
2021/11/02 11:08:39;;;;;;;166.03;52.53;;;;;;;5.77;79.32;94449.05;1832363;78;21004;-68
2021/11/02 11:11:11;;;;;;;142.57;48.77;;;;;;;5.83;78.94;94447.19;1832310;78;20967;-68
2021/11/02 11:13:41;;;;;;;124.87;45.50;;;;;;;5.88;78.90;94443.19;1832297;78;20991;-68
2021/11/02 11:16:18;;;;;;;120.73;43.87;;;;;;;5.87;79.13;94444.05;1832463;78;20996;-68
2021/11/02 11:18:58;;;;;;;129.77;48.47;;;;;;;5.93;78.66;94441.80;1800082;78;21051;-68
2021/11/02 11:21:27;;;;;;;80.33;30.50;;;;;;;6.04;78.43;94442.47;1832489;78;20991;-68
2021/11/02 11:24:13;;;;;;;62.63;22.83;;;;;;;6.12;78.10;94448.86;1832281;78;21038;-67
2021/11/02 11:26:52;;;;;;;65.00;26.97;;;;;;;6.21;77.83;94451.31;1832300;78;21485;-68
2021/11/02 11:29:28;;;;;;;101.47;38.50;;;;;;;6.17;77.54;94446.56;1832030;78;21115;-68
2021/11/02 11:31:58;;;;;;;145.40;48.23;;;;;;;6.17;77.59;94453.11;1832359;77;20983;-68
2021/11/02 11:34:36;;;;;;;150.53;51.80;;;;;;;6.14;77.68;94454.48;1832213;78;21492;-68
2021/11/02 11:37:09;;;;;;;304.87;116.43;;;;;;;6.17;78.07;94462.73;1832185;78;20999;-68
2021/11/02 11:39:37;;;;;;;327.37;126.07;;;;;;;6.22;78.05;94459.56;1800580;78;21008;-68
2021/11/02 11:42:05;;;;;;;135.03;49.70;;;;;;;6.24;78.33;94464.33;1832169;78;21537;-68
2021/11/02 11:44:32;;;;;;;79.97;32.83;;;;;;;6.17;78.96;94459.66;1832024;78;21553;-68
2021/11/02 11:47:08;;;;;;;47.27;20.80;;;;;;;6.12;79.32;94464.12;1831725;78;21028;-68
2021/11/02 11:49:38;;;;;;;53.27;26.07;;;;;;;6.07;78.92;94472.52;1831353;78;21084;-68
2021/11/02 11:52:08;;;;;;;64.43;27.97;;;;;;;5.98;78.97;94480.56;1831870;78;21030;-68
2021/11/02 11:54:52;;;;;;;72.33;30.27;;;;;;;5.90;78.95;94474.13;1831686;78;20984;-68
2021/11/02 11:57:35;;;;;;;54.13;23.53;;;;;;;5.88;78.85;94471.98;1831273;78;21426;-68
2021/11/02 12:00:13;;;;;;;49.27;21.00;;;;;;;5.82;78.92;94470.34;1831762;78;21010;-68
2021/11/02 12:03:11;;;;;;;32.83;17.73;;;;;;;5.72;79.66;94463.55;1799552;78;21006;-68
2021/11/02 12:05:49;;;;;;;33.30;16.40;;;;;;;5.66;79.74;94453.63;1831448;78;21092;-68
2021/11/02 12:08:26;;;;;;;33.87;15.87;;;;;;;5.61;80.02;94449.33;1799892;78;20992;-68
2021/11/02 12:10:56;;;;;;;50.93;24.30;;;;;;;5.53;79.28;94445.99;1830664;78;20956;-68
2021/11/02 12:13:23;;;;;;;61.67;28.27;;;;;;;5.48;79.35;94443.91;1831422;78;20999;-68
2021/11/02 12:16:10;;;;;;;76.17;34.50;;;;;;;5.46;79.50;94451.36;1831598;78;20968;-68
2021/11/02 12:18:42;;;;;;;92.57;36.60;;;;;;;5.46;79.41;94444.82;1831718;78;21492;-68
2021/11/02 12:21:19;;;;;;;84.07;38.17;;;;;;;5.51;80.25;94422.91;1831393;78;21065;-68
2021/11/02 12:23:51;;;;;;;95.77;41.63;;;;;;;5.59;80.61;94423.66;1831524;78;20940;-68
2021/11/02 12:26:18;;;;;;;108.23;44.07;;;;;;;5.71;80.40;94424.31;1831386;78;21460;-68
2021/11/02 12:28:47;;;;;;;117.97;48.27;;;;;;;5.78;80.64;94429.41;1831394;78;21050;-68
2021/11/02 12:31:18;;;;;;;123.97;49.17;;;;;;;5.78;80.21;94435.09;1831741;78;20970;-68
2021/11/02 12:33:49;;;;;;;101.67;44.57;;;;;;;5.82;80.77;94444.59;1831819;78;21027;-68
2021/11/02 12:36:25;;;;;;;164.23;62.07;;;;;;;5.91;80.89;94450.97;1831682;78;21016;-68
2021/11/02 12:39:07;;;;;;;206.17;69.30;;;;;;;5.99;81.14;94452.16;1831527;78;21023;-68
2021/11/02 12:41:34;;;;;;;191.00;68.90;;;;;;;6.03;81.08;94461.25;1831500;78;21540;-68
2021/11/02 12:44:08;;;;;;;162.40;61.27;;;;;;;6.12;80.70;94461.50;1831551;78;21119;-68
2021/11/02 12:46:39;;;;;;;;;;;;;;;6.23;80.65;94456.08;1836048;78;21020;-68
2021/11/02 12:49:08;;;;;;;132.10;53.27;;;;;;;6.28;80.24;94453.77;1835422;78;20094;-68
2021/11/02 12:51:44;;;;;;;161.47;62.57;;;;;;;6.28;80.52;94452.46;1835121;78;20961;-68
2021/11/02 12:54:15;;;;;;;202.37;73.17;;;;;;;6.32;80.04;94463.73;1835097;78;21026;-68
2021/11/02 12:56:47;;;;;;;;;;;;;;;6.30;80.22;94451.13;1837785;78;21007;-68
2021/11/02 12:59:27;;;;;;;82.23;35.43;;;;;;;6.27;80.78;94442.89;1833904;78;20157;-68
2021/11/02 13:01:59;;;;;;;50.93;23.30;;;;;;;6.23;80.79;94453.00;1835390;78;20999;-68
2021/11/02 13:04:31;;;;;;;58.50;29.80;;;;;;;6.20;80.20;94453.07;1835255;78;21446;-68
2021/11/02 13:06:59;;;;;;;38.77;18.13;;;;;;;6.12;80.26;94455.41;1833793;78;20958;-68
2021/11/02 13:09:33;;;;;;;28.40;14.33;;;;;;;6.14;80.30;94458.41;1835134;78;21058;-68
2021/11/02 13:12:06;;;;;;;32.17;14.53;;;;;;;6.16;80.18;94464.94;1835237;78;21019;-67
2021/11/02 13:14:42;;;;;;;23.07;13.58;;;;;;;6.13;79.88;94456.70;1835310;78;20995;-68
2021/11/02 13:17:13;;;;;;;28.83;16.47;;;;;;;6.09;79.56;94459.41;1835246;78;21030;-68
2021/11/02 13:19:47;;;;;;;32.53;16.80;;;;;;;6.02;79.10;94465.19;1835081;78;20991;-68
2021/11/02 13:22:20;;;;;;;28.10;16.40;;;;;;;5.98;79.43;94461.78;1835147;78;21004;-68
2021/11/02 13:25:10;;;;;;;24.00;12.07;;;;;;;5.98;79.36;94454.38;1835300;78;20959;-68
2021/11/02 13:27:44;;;;;;;29.40;15.20;;;;;;;5.98;79.01;94459.62;1834742;78;21091;-68
2021/11/02 13:30:38;;;;;;;30.50;16.03;;;;;;;5.89;79.54;94450.13;1835494;78;21011;-68
2021/11/02 13:33:19;;;;;;;29.30;16.90;;;;;;;5.89;79.40;94442.73;1834817;78;21079;-67
2021/11/02 13:35:57;;;;;;;28.23;15.10;;;;;;;5.94;79.36;94450.08;1835071;78;20995;-68
2021/11/02 13:38:34;;;;;;;33.20;15.67;;;;;;;5.95;80.44;94438.73;1834835;78;21083;-68
2021/11/02 13:41:22;;;;;;;27.87;13.93;;;;;;;5.93;81.13;94442.65;1833729;78;21059;-68
2021/11/02 13:43:52;;;;;;;20.20;12.07;;;;;;;5.90;80.75;94442.72;1834762;78;21004;-68
2021/11/02 13:46:23;;;;;;;33.23;15.60;;;;;;;5.82;80.59;94442.86;1836486;78;21094;-68
2021/11/02 13:48:50;;;;;;;51.03;21.27;;;;;;;5.86;80.06;94438.42;1840572;78;20975;-68
2021/11/02 13:51:19;;;;;;;48.03;20.63;;;;;;;5.88;80.09;94437.09;1840369;78;20987;-68
2021/11/02 13:53:47;;;;;;;36.63;17.60;;;;;;;5.91;80.51;94439.64;1840812;78;20994;-68
2021/11/02 13:56:21;;;;;;;41.40;18.87;;;;;;;5.98;80.66;94438.22;1840087;78;21012;-68
2021/11/02 13:58:48;;;;;;;41.00;18.47;;;;;;;6.09;80.76;94431.91;1840740;78;20953;-68
2021/11/02 14:01:32;;;;;;;40.93;21.37;;;;;;;6.17;80.61;94425.61;1840164;78;21098;-68
2021/11/02 14:04:07;;;;;;;51.73;23.90;;;;;;;6.19;80.56;94422.52;1840637;78;21062;-68
2021/11/02 14:06:38;;;;;;;50.83;23.03;;;;;;;6.27;80.72;94422.36;1840368;78;21087;-68
2021/11/02 14:09:14;;;;;;;62.03;25.47;;;;;;;6.33;80.61;94434.48;1840564;78;21481;-68
2021/11/02 14:11:41;;;;;;;88.20;35.10;;;;;;;6.33;80.27;94430.55;1840199;78;21054;-68
2021/11/02 14:14:35;;;;;;;59.43;25.43;;;;;;;6.34;80.05;94428.34;1840886;78;21433;-68
2021/11/02 14:17:21;;;;;;;62.88;26.77;;;;;;;6.24;80.46;94431.14;1840405;78;21524;-68
2021/11/02 14:19:52;;;;;;;54.37;23.80;;;;;;;6.23;80.59;94415.02;1840834;78;21007;-68
2021/11/02 14:22:44;;;;;;;54.90;24.97;;;;;;;6.19;80.59;94411.18;1840151;78;21079;-68
2021/11/02 14:25:23;;;;;;;77.17;32.77;;;;;;;6.19;80.90;94415.11;1840696;78;20983;-68
2021/11/02 14:27:53;;;;;;;56.27;25.80;;;;;;;6.15;81.13;94423.91;1812831;78;21102;-68
2021/11/02 14:30:36;;;;;;;36.93;17.53;;;;;;;6.14;81.20;94428.30;1840678;78;20999;-68
2021/11/02 14:33:06;;;;;;;37.00;21.00;;;;;;;6.15;81.30;94429.15;1840375;78;21449;-68
2021/11/02 14:35:50;;;;;;;38.10;20.70;;;;;;;6.12;81.04;94431.38;1840499;78;21051;-68
2021/11/02 14:38:24;;;;;;;42.00;20.17;;;;;;;6.10;81.14;94431.00;1832865;78;21019;-68
2021/11/02 14:40:57;;;;;;;24.47;14.87;;;;;;;6.08;80.95;94445.45;1840251;78;20972;-68
2021/11/02 14:43:28;;;;;;;24.87;15.45;;;;;;;6.01;80.86;94439.91;1840661;78;21003;-68
2021/11/02 14:46:06;;;;;;;31.47;17.43;;;;;;;5.96;81.03;94450.92;1840701;78;20980;-68
2021/11/02 14:48:39;;;;;;;29.33;16.73;;;;;;;5.91;81.00;94452.73;1838180;78;21087;-68
2021/11/02 14:51:15;;;;;;;;;;;;;;;5.86;81.35;94450.20;1843358;78;21527;-68
2021/11/02 14:53:48;;;;;;;22.17;12.00;;;;;;;5.81;81.43;94446.35;1840695;78;20398;-68
2021/11/02 14:56:22;;;;;;;24.72;11.60;;;;;;;5.75;82.53;94446.48;1840786;78;21067;-68
2021/11/02 14:58:52;;;;;;;27.87;14.57;;;;;;;5.62;82.67;94434.06;1839671;78;21324;-68
2021/11/02 15:01:36;;;;;;;20.80;11.20;;;;;;;5.56;83.69;94446.38;1840645;78;21008;-68
2021/11/02 15:04:10;;;;;;;28.10;14.67;;;;;;;5.52;83.72;94452.13;1840608;78;20968;-68
2021/11/02 15:06:40;;;;;;;35.53;15.17;;;;;;;5.49;83.27;94446.06;1840139;78;21011;-68
2021/11/02 15:09:14;;;;;;;31.07;16.67;;;;;;;5.49;83.64;94448.69;1840666;78;20991;-68
2021/11/02 15:11:46;;;;;;;30.73;15.73;;;;;;;5.49;84.06;94453.47;1840273;78;21293;-68
2021/11/02 15:14:21;;;;;;;37.20;20.17;;;;;;;5.46;84.23;94443.52;1840675;78;21014;-68
2021/11/02 15:16:57;;;;;;;29.80;16.13;;;;;;;5.43;84.50;94437.89;1840234;78;21504;-68
2021/11/02 15:19:28;;;;;;;36.73;19.20;;;;;;;5.39;84.60;94441.44;1840797;78;21480;-67
2021/11/02 15:22:02;;;;;;;33.40;17.90;;;;;;;5.38;84.70;94432.73;1840129;78;21027;-68
2021/11/02 15:24:37;;;;;;;59.07;29.07;;;;;;;5.39;84.22;94438.41;1813136;78;20952;-68
2021/11/02 15:27:24;;;;;;;65.03;31.50;;;;;;;5.41;84.94;94450.13;1839895;78;20979;-68
2021/11/02 15:29:56;;;;;;;70.87;37.30;;;;;;;5.42;85.39;94446.19;1840920;78;21019;-68
2021/11/02 15:32:26;;;;;;;83.23;41.43;;;;;;;5.46;85.60;94443.52;1840323;78;21007;-67
2021/11/02 15:35:01;;;;;;;94.37;49.37;;;;;;;5.49;85.28;94440.84;1840790;78;20992;-68
2021/11/02 15:37:42;;;;;;;113.07;54.57;;;;;;;5.55;85.30;94440.30;1840788;78;21010;-68
2021/11/02 15:40:18;;;;;;;76.73;38.63;;;;;;;5.58;84.89;94444.61;1840857;78;20983;-68
2021/11/02 15:42:55;;;;;;;66.87;37.17;;;;;;;5.55;85.51;94445.53;1840134;78;21087;-68
2021/11/02 15:45:34;;;;;;;72.60;38.53;;;;;;;5.60;85.58;94445.00;1840604;78;20959;-68
2021/11/02 15:48:08;;;;;;;94.67;47.33;;;;;;;5.62;85.34;94454.14;1836191;78;21554;-68
2021/11/02 15:50:39;;;;;;;80.03;42.80;;;;;;;5.60;85.35;94451.54;1835211;78;21038;-68
2021/11/02 15:53:09;;;;;;;74.40;39.40;;;;;;;5.70;85.77;94450.08;1835322;78;20995;-68
2021/11/02 15:55:37;;;;;;;84.80;44.17;;;;;;;5.79;85.92;94447.27;1834940;78;21024;-68
2021/11/02 15:58:08;;;;;;;79.63;42.37;;;;;;;5.82;85.63;94461.61;1835294;78;20995;-68
2021/11/02 16:00:42;;;;;;;98.10;48.37;;;;;;;5.89;85.72;94455.82;1835240;78;20997;-68
2021/11/02 16:03:15;;;;;;;;;;;;;;;5.92;85.09;94456.64;1838022;78;20988;-68
2021/11/02 16:05:45;;;;;;;78.35;41.95;;;;;;;5.92;85.22;94454.02;1835210;78;20142;-68
2021/11/02 16:08:21;;;;;;;77.47;40.07;;;;;;;5.93;85.38;94452.27;1835320;78;21450;-67
2021/11/02 16:10:54;;;;;;;58.13;31.60;;;;;;;5.86;85.95;94455.43;1834807;78;21111;-68
2021/11/02 16:13:25;;;;;;;69.33;38.17;;;;;;;5.85;85.74;94448.03;1835184;78;21020;-68
2021/11/02 16:15:54;;;;;;;71.20;37.47;;;;;;;5.88;85.56;94448.88;1835082;78;20995;-68
2021/11/02 16:18:25;;;;;;;36.93;18.87;;;;;;;5.88;85.12;94452.34;1835272;78;20999;-68
2021/11/02 16:21:01;;;;;;;59.30;34.33;;;;;;;5.78;85.70;94449.48;1806566;78;21531;-68
2021/11/02 16:23:49;;;;;;;58.30;31.03;;;;;;;5.76;85.64;94438.17;1835231;78;21011;-68
2021/11/02 16:26:28;;;;;;;54.00;30.20;;;;;;;5.77;85.38;94441.20;1835091;78;20971;-68
2021/11/02 16:29:14;;;;;;;60.87;32.53;;;;;;;5.76;86.42;94442.09;1835340;78;21489;-68
2021/11/02 16:31:43;;;;;;;107.80;57.47;;;;;;;5.84;86.45;94441.05;1835188;78;21514;-68
2021/11/02 16:34:23;;;;;;;52.07;28.90;;;;;;;5.87;86.56;94433.58;1835152;78;21000;-67
2021/11/02 16:36:52;;;;;;;105.23;54.50;;;;;;;5.85;86.41;94435.39;1834951;78;21089;-67
2021/11/02 16:39:25;;;;;;;77.67;42.13;;;;;;;5.82;86.82;94437.63;1835204;78;20972;-67
2021/11/02 16:41:54;;;;;;;;;;;;;;;5.80;86.78;94436.78;1837798;78;21007;-68
2021/11/02 16:44:35;;;;;;;100.33;52.77;;;;;;;5.82;86.77;94426.27;1835009;78;20093;-68
2021/11/02 16:47:15;;;;;;;80.13;44.47;;;;;;;5.86;86.86;94428.80;1833613;78;21024;-67
2021/11/02 16:49:43;;;;;;;72.27;38.50;;;;;;;5.92;86.71;94421.30;1831524;78;21060;-68
2021/11/02 16:52:30;;;;;;;47.43;27.30;;;;;;;5.93;86.69;94423.02;1831718;78;20975;-68
2021/11/02 16:55:14;;;;;;;92.17;48.43;;;;;;;5.97;86.47;94422.52;1830770;78;20972;-68